createdAt,value
2018-02-07T00:00:56.580Z,98.12
2018-02-07T00:03:27.123Z,87.50
2018-02-07T00:05:57.940Z,88.97
2018-02-07T00:08:29.488Z,93.10
2018-02-07T00:10:59.860Z,90.28
2018-02-07T00:13:31.276Z,104.16
2018-02-07T00:16:01.779Z,110.45
2018-02-07T00:18:32.699Z,87.55
2018-02-07T00:21:04.283Z,106.18
2018-02-07T00:23:34.075Z,89.75
2018-02-07T00:26:05.695Z,96.34
2018-02-07T00:28:36.243Z,92.80
2018-02-07T00:31:06.416Z,99.18
2018-02-07T00:33:36.769Z,87.68
2018-02-07T00:36:07.614Z,98.82
2018-02-07T00:38:38.218Z,102.34
2018-02-07T00:41:08.830Z,89.40
2018-02-07T00:43:39.744Z,102.60
2018-02-07T00:46:12.461Z,104.50
2018-02-07T00:48:42.191Z,97.35
2018-02-07T00:51:13.671Z,97.68
2018-02-07T00:53:44.228Z,99.16
2018-02-07T00:56:14.393Z,99.18
2018-02-07T00:58:45.120Z,104.25
2018-02-07T01:01:15.774Z,96.53
2018-02-07T01:03:46.344Z,101.16
2018-02-07T01:06:16.156Z,97.72
2018-02-07T01:08:46.797Z,101.82
2018-02-07T01:11:17.664Z,102.87
2018-02-07T01:13:48.281Z,111.97
2018-02-07T01:16:18.770Z,119.40
2018-02-07T01:18:49.694Z,101.87
2018-02-07T01:21:20.234Z,114.10
2018-02-07T01:23:50.427Z,109.17
2018-02-07T01:26:21.151Z,115.05
2018-02-07T01:28:52.066Z,117.68
2018-02-07T01:31:22.981Z,105.53
2018-02-07T01:33:53.399Z,112.25
2018-02-07T01:36:24.018Z,117.35
2018-02-07T01:38:55.309Z,112.86
2018-02-07T01:41:26.136Z,119.82
2018-02-07T01:43:57.426Z,118.54
2018-02-07T01:46:28.096Z,109.78
2018-02-07T01:48:59.472Z,117.76
2018-02-07T01:51:30.031Z,111.50
2018-02-07T01:53:59.910Z,102.87
2018-02-07T01:56:30.747Z,99.18
2018-02-07T01:59:01.881Z,116.10
2018-02-07T02:01:32.987Z,98.97
2018-02-07T02:04:03.855Z,116.85
2018-02-07T02:06:34.592Z,116.82
2018-02-07T02:09:04.659Z,114.60
2018-02-07T02:11:33.735Z,114.35
2018-02-07T02:14:02.843Z,121.75
2018-02-07T02:16:31.986Z,113.45
2018-02-07T02:19:01.071Z,119.90
2018-02-07T02:21:29.855Z,105.90
2018-02-07T02:23:58.931Z,105.97
2018-02-07T02:26:27.780Z,104.47
2018-02-07T02:28:56.572Z,101.63
2018-02-07T02:31:25.739Z,111.90
2018-02-07T02:33:54.656Z,105.73
2018-02-07T02:36:34.600Z,114.87
2018-02-07T02:39:03.259Z,103.37
2018-02-07T02:41:34.110Z,113.77
2018-02-07T02:44:02.954Z,103.73
2018-02-07T02:46:31.736Z,105.43
2018-02-07T02:49:00.541Z,107.97
2018-02-07T02:51:29.427Z,105.67
2018-02-07T02:53:58.244Z,112.40
2018-02-07T02:56:27.047Z,111.83
2018-02-07T02:58:55.978Z,110.17
2018-02-07T03:01:24.947Z,102.30
2018-02-07T03:03:53.826Z,102.57
2018-02-07T03:06:22.786Z,102.77
2018-02-07T03:08:51.567Z,102.57
2018-02-07T03:11:20.555Z,108.20
2018-02-07T03:13:49.399Z,101.07
2018-02-07T03:16:18.235Z,102.90
2018-02-07T03:18:47.046Z,105.70
2018-02-07T03:21:15.934Z,119.37
2018-02-07T03:23:44.747Z,105.47
2018-02-07T03:26:13.672Z,105.57
2018-02-07T03:28:42.961Z,97.10
2018-02-07T03:31:11.743Z,104.03
2018-02-07T03:33:40.539Z,100.83
2018-02-07T03:36:09.554Z,103.07
2018-02-07T03:38:38.653Z,96.77
2018-02-07T03:41:07.679Z,107.13
2018-02-07T03:43:36.809Z,110.67
2018-02-07T03:46:05.678Z,115.07
2018-02-07T03:48:34.600Z,118.00
2018-02-07T03:51:03.439Z,105.10
2018-02-07T03:53:32.318Z,114.37
2018-02-07T03:56:01.092Z,106.80
2018-02-07T03:58:29.922Z,111.87
2018-02-07T04:00:58.707Z,112.53
2018-02-07T04:03:27.763Z,99.73
2018-02-07T04:05:56.614Z,123.80
2018-02-07T04:08:25.615Z,116.93
2018-02-07T04:10:54.639Z,120.23
2018-02-07T04:13:23.646Z,112.57
2018-02-07T04:15:52.771Z,105.80
2018-02-07T04:18:21.538Z,119.33
2018-02-07T04:20:50.660Z,117.53
2018-02-07T04:23:19.724Z,116.90
2018-02-07T04:25:48.551Z,112.93
2018-02-07T04:28:17.375Z,116.83
2018-02-07T04:30:46.387Z,116.70
2018-02-07T04:33:15.192Z,112.37
2018-02-07T04:35:44.092Z,114.57
2018-02-07T04:38:12.939Z,110.50
2018-02-07T04:40:41.738Z,109.50
2018-02-07T04:43:10.787Z,125.43
2018-02-07T04:45:39.579Z,129.27
2018-02-07T04:48:08.626Z,125.70
2018-02-07T04:50:37.291Z,115.57
2018-02-07T04:53:09.789Z,124.93
2018-02-07T04:55:38.709Z,131.70
2018-02-07T04:58:07.484Z,118.70
2018-02-07T05:00:36.282Z,137.10
2018-02-07T05:03:05.146Z,128.20
2018-02-07T05:05:33.940Z,137.07
2018-02-07T05:08:02.748Z,133.00
2018-02-07T05:10:31.591Z,121.40
2018-02-07T05:13:00.733Z,123.90
2018-02-07T05:15:29.548Z,122.93
2018-02-07T05:17:58.595Z,124.97
2018-02-07T05:20:27.691Z,127.85
2018-02-07T05:22:56.532Z,129.03
2018-02-07T05:25:25.655Z,134.10
2018-02-07T05:27:54.836Z,132.45
2018-02-07T05:30:23.899Z,132.73
2018-02-07T05:32:53.242Z,134.10
2018-02-07T05:35:22.310Z,142.65
2018-02-07T05:37:51.715Z,128.40
2018-02-07T05:40:20.946Z,136.88
2018-02-07T05:42:50.283Z,137.23
2018-02-07T05:45:19.789Z,130.27
2018-02-07T05:47:50.905Z,147.10
2018-02-07T05:50:21.439Z,136.26
2018-02-07T05:52:51.800Z,139.82
2018-02-07T05:55:22.279Z,149.22
2018-02-07T05:57:52.839Z,148.52
2018-02-07T06:00:23.390Z,143.02
2018-02-07T06:02:54.318Z,133.48
2018-02-07T06:05:24.763Z,142.02
2018-02-07T06:07:55.423Z,130.73
2018-02-07T06:10:25.972Z,140.55
2018-02-07T06:12:57.384Z,140.66
2018-02-07T06:15:28.199Z,146.18
2018-02-07T06:17:58.995Z,184.13
2018-02-07T06:20:30.179Z,180.36
2018-02-07T06:23:01.131Z,156.48
2018-02-07T06:25:32.248Z,166.73
2018-02-07T06:28:03.002Z,161.73
2018-02-07T06:30:34.206Z,153.86
2018-02-07T06:33:05.770Z,165.92
2018-02-07T06:35:36.586Z,162.93
2018-02-07T06:38:07.539Z,165.43
2018-02-07T06:40:38.718Z,189.27
2018-02-07T06:43:09.695Z,174.25
2018-02-07T06:45:40.492Z,207.48
2018-02-07T06:48:11.602Z,221.00
2018-02-07T06:50:42.320Z,209.98
2018-02-07T06:53:13.820Z,182.48
2018-02-07T06:55:44.671Z,211.07
2018-02-07T06:58:15.597Z,171.82
2018-02-07T07:00:46.468Z,162.32
2018-02-07T07:03:17.830Z,178.36
2018-02-07T07:05:48.300Z,206.34
2018-02-07T07:08:19.187Z,259.42
2018-02-07T07:10:49.391Z,253.66
2018-02-07T07:13:19.803Z,238.73
2018-02-07T07:15:50.672Z,238.93
2018-02-07T07:18:21.615Z,242.70
2018-02-07T07:20:52.123Z,244.44
2018-02-07T07:23:22.995Z,228.77
2018-02-07T07:25:53.766Z,200.02
2018-02-07T07:28:24.317Z,185.76
2018-02-07T07:30:54.811Z,175.60
2018-02-07T07:33:25.728Z,188.80
2018-02-07T07:35:56.493Z,251.38
2018-02-07T07:38:26.894Z,281.08
2018-02-07T07:40:57.758Z,238.60
2018-02-07T07:43:28.740Z,225.52
2018-02-07T07:45:59.253Z,217.12
2018-02-07T07:48:30.270Z,238.52
2018-02-07T07:51:00.801Z,221.77
2018-02-07T07:53:31.792Z,216.43
2018-02-07T07:56:03.076Z,196.94
2018-02-07T07:58:34.168Z,183.68
2018-02-07T08:01:04.799Z,196.25
2018-02-07T08:03:36.324Z,176.78
2018-02-07T08:06:06.729Z,184.82
2018-02-07T08:08:37.639Z,211.82
2018-02-07T08:11:08.497Z,240.25
2018-02-07T08:13:39.428Z,194.48
2018-02-07T08:16:09.857Z,202.77
2018-02-07T08:18:40.427Z,175.60
2018-02-07T08:21:11.099Z,182.93
2018-02-07T08:23:42.080Z,157.70
2018-02-07T08:26:13.671Z,147.50
2018-02-07T08:28:44.626Z,164.85
2018-02-07T08:31:15.551Z,166.73
2018-02-07T08:33:46.827Z,179.44
2018-02-07T08:36:17.710Z,167.10
2018-02-07T08:38:48.654Z,172.32
2018-02-07T08:41:19.508Z,155.05
2018-02-07T08:43:50.879Z,153.12
2018-02-07T08:46:21.072Z,148.45
2018-02-07T08:48:53.087Z,145.14
2018-02-07T08:51:23.750Z,128.30
2018-02-07T08:53:55.111Z,141.90
2018-02-07T08:56:25.756Z,142.43
2018-02-07T08:58:56.680Z,136.32
2018-02-07T09:01:27.175Z,138.46
2018-02-07T09:03:57.818Z,145.32
2018-02-07T09:06:28.659Z,144.82
2018-02-07T09:08:59.376Z,147.85
2018-02-07T09:11:30.776Z,138.66
2018-02-07T09:14:02.117Z,143.40
2018-02-07T09:16:32.915Z,156.65
2018-02-07T09:19:03.506Z,163.60
2018-02-07T09:21:33.787Z,144.13
2018-02-07T09:24:04.696Z,161.65
2018-02-07T09:26:35.552Z,143.93
2018-02-07T09:29:05.932Z,160.48
2018-02-07T09:31:36.384Z,148.82
2018-02-07T09:34:07.074Z,144.65
2018-02-07T09:36:37.969Z,157.23
2018-02-07T09:39:09.403Z,164.68
2018-02-07T09:41:40.658Z,150.18
2018-02-07T09:44:11.538Z,151.37
2018-02-07T09:46:42.393Z,148.73
2018-02-07T09:49:13.771Z,145.02
2018-02-07T09:51:45.237Z,138.64
2018-02-07T09:54:16.143Z,144.90
2018-02-07T09:56:44.954Z,150.60
2018-02-07T09:59:15.943Z,144.00
2018-02-07T10:01:47.454Z,145.24
2018-02-07T10:04:18.063Z,139.35
2018-02-07T10:06:49.018Z,137.00
2018-02-07T10:09:20.327Z,145.42
2018-02-07T10:11:50.966Z,139.35
2018-02-07T10:14:22.289Z,144.10
2018-02-07T10:16:53.120Z,152.12
2018-02-07T10:19:24.000Z,147.32
2018-02-07T10:21:55.283Z,141.76
2018-02-07T10:24:26.133Z,158.70
2018-02-07T10:26:56.975Z,155.82
2018-02-07T10:29:27.320Z,152.18
2018-02-07T10:31:58.045Z,150.45
2018-02-07T10:34:28.363Z,149.30
2018-02-07T10:36:59.138Z,148.77
2018-02-07T10:39:30.202Z,154.45
2018-02-07T10:42:01.815Z,190.62
2018-02-07T10:44:32.650Z,179.45
2018-02-07T10:47:03.526Z,179.98
2018-02-07T10:49:34.371Z,178.73
2018-02-07T10:52:05.784Z,172.52
2018-02-07T10:54:36.656Z,173.30
2018-02-07T10:57:07.593Z,149.93
2018-02-07T10:59:38.446Z,158.70
2018-02-07T11:02:09.780Z,156.96
2018-02-07T11:04:40.295Z,150.52
2018-02-07T11:07:10.800Z,148.05
2018-02-07T11:09:41.390Z,163.44
2018-02-07T11:12:11.932Z,148.90
2018-02-07T11:14:42.656Z,138.52
2018-02-07T11:17:13.473Z,149.40
2018-02-07T11:19:44.766Z,140.34
2018-02-07T11:22:15.700Z,145.68
2018-02-07T11:24:46.227Z,138.82
2018-02-07T11:27:16.871Z,133.93
2018-02-07T11:29:47.792Z,133.40
2018-02-07T11:32:18.750Z,129.00
2018-02-07T11:34:49.252Z,124.40
2018-02-07T11:37:19.819Z,141.95
2018-02-07T11:39:50.686Z,131.45
2018-02-07T11:42:21.662Z,123.32
2018-02-07T11:44:52.539Z,118.43
2018-02-07T11:47:23.150Z,124.86
2018-02-07T11:49:53.789Z,113.85
2018-02-07T11:52:24.720Z,121.80
2018-02-07T11:54:55.623Z,126.38
2018-02-07T11:57:26.542Z,129.85
2018-02-07T11:59:58.057Z,121.16
2018-02-07T12:02:28.075Z,121.08
2018-02-07T12:04:58.671Z,131.45
2018-02-07T12:07:29.634Z,120.95
2018-02-07T12:10:00.160Z,113.10
2018-02-07T12:12:30.960Z,121.00
2018-02-07T12:15:01.711Z,115.82
2018-02-07T12:17:32.623Z,113.95
2018-02-07T12:20:03.099Z,111.30
2018-02-07T12:22:33.731Z,111.12
2018-02-07T12:25:04.250Z,107.64
2018-02-07T12:27:34.868Z,107.97
2018-02-07T12:30:05.676Z,111.90
2018-02-07T12:32:36.579Z,99.47
2018-02-07T12:35:07.389Z,104.68
2018-02-07T12:37:38.779Z,110.28
2018-02-07T12:40:09.687Z,109.12
2018-02-07T12:42:40.590Z,103.40
2018-02-07T12:45:11.221Z,113.10
2018-02-07T12:47:41.804Z,113.53
2018-02-07T12:50:12.399Z,125.60
2018-02-07T12:52:44.584Z,117.28
2018-02-07T12:55:15.934Z,125.06
2018-02-07T12:57:49.172Z,123.72
2018-02-07T13:00:18.249Z,124.75
2018-02-07T13:02:48.267Z,123.00
2018-02-07T13:05:18.797Z,118.03
2018-02-07T13:07:49.871Z,116.37
2018-02-07T13:10:20.631Z,110.15
2018-02-07T13:12:51.539Z,115.18
2018-02-07T13:15:22.385Z,111.93
2018-02-07T13:17:53.764Z,128.50
2018-02-07T13:20:25.051Z,131.68
2018-02-07T13:22:55.732Z,128.80
2018-02-07T13:25:26.598Z,121.28
2018-02-07T13:27:57.531Z,118.47
2018-02-07T13:30:28.052Z,109.32
2018-02-07T13:32:58.763Z,110.28
2018-02-07T13:35:30.028Z,125.10
2018-02-07T13:38:00.842Z,109.87
2018-02-07T13:40:31.682Z,122.72
2018-02-07T13:43:02.585Z,117.37
2018-02-07T13:48:29.932Z,137.10
2018-02-07T13:50:58.744Z,124.13
2018-02-07T13:53:27.571Z,130.73
2018-02-07T13:55:56.547Z,117.43
2018-02-07T13:58:25.568Z,124.17
2018-02-07T14:00:54.722Z,110.82
2018-02-07T14:03:23.615Z,104.32
2018-02-07T14:05:52.928Z,125.38
2018-02-07T14:08:22.078Z,116.12
2018-02-07T14:10:51.220Z,118.40
2018-02-07T14:13:21.487Z,110.90
2018-02-07T14:15:50.694Z,125.60
2018-02-07T14:18:19.935Z,105.43
2018-02-07T14:20:49.075Z,91.40
2018-02-07T14:23:18.288Z,88.67
2018-02-07T14:25:47.430Z,90.05
2018-02-07T14:28:16.539Z,87.62
2018-02-07T14:30:47.206Z,93.80
2018-02-07T14:33:17.698Z,100.53
2018-02-07T14:35:48.307Z,89.34
2018-02-07T14:38:18.075Z,92.15
2018-02-07T14:40:48.762Z,85.95
2018-02-07T14:43:19.700Z,92.15
2018-02-07T14:45:50.302Z,96.92
2018-02-07T14:48:20.735Z,95.40
2018-02-07T14:50:51.650Z,90.93
2018-02-07T14:53:22.252Z,94.68
2018-02-07T14:55:53.677Z,102.74
2018-02-07T14:58:24.522Z,105.37
2018-02-07T15:00:55.125Z,118.08
2018-02-07T15:03:25.752Z,126.72
2018-02-07T15:05:56.347Z,115.56
2018-02-07T15:08:27.044Z,105.55
2018-02-07T15:10:57.093Z,103.38
2018-02-07T15:13:27.752Z,120.50
2018-02-07T15:15:58.711Z,98.87
2018-02-07T15:18:29.525Z,106.93
2018-02-07T15:21:02.328Z,104.45
2018-02-07T15:23:32.059Z,100.65
2018-02-07T15:26:03.107Z,94.30
2018-02-07T15:28:33.637Z,109.43
2018-02-07T15:31:04.554Z,108.60
2018-02-07T15:33:35.384Z,110.53
2018-02-07T15:36:06.753Z,112.72
2018-02-07T15:38:37.206Z,106.06
2018-02-07T15:41:07.783Z,100.57
2018-02-07T15:43:38.767Z,91.50
2018-02-07T15:46:09.655Z,90.15
2018-02-07T15:48:40.500Z,88.28
2018-02-07T15:51:11.397Z,91.18
2018-02-07T15:53:42.663Z,96.12
2018-02-07T15:56:13.555Z,99.32
2018-02-07T15:58:44.643Z,108.68
2018-02-07T16:01:15.581Z,127.80
2018-02-07T16:03:46.420Z,171.48
2018-02-07T16:06:17.733Z,208.74
2018-02-07T16:08:48.922Z,219.93
2018-02-07T16:11:19.807Z,222.68
2018-02-07T16:13:50.314Z,196.12
2018-02-07T16:16:20.783Z,178.95
2018-02-07T16:18:51.668Z,164.27
2018-02-07T16:21:22.591Z,156.32
2018-02-07T16:23:52.969Z,155.06
2018-02-07T16:26:23.778Z,147.23
2018-02-07T16:28:54.264Z,169.16
2018-02-07T16:31:25.160Z,198.48
2018-02-07T16:33:55.323Z,176.68
2018-02-07T16:36:25.971Z,178.23
2018-02-07T16:38:56.730Z,195.98
2018-02-07T16:41:30.862Z,194.35
2018-02-07T16:43:59.995Z,192.93
2018-02-07T16:46:30.444Z,211.36
2018-02-07T16:49:01.032Z,190.64
2018-02-07T16:51:31.364Z,177.98
2018-02-07T16:54:01.839Z,198.55
2018-02-07T16:56:32.753Z,198.93
2018-02-07T16:59:03.559Z,205.00
2018-02-07T17:01:34.483Z,211.48
2018-02-07T17:04:05.799Z,216.00
2018-02-07T17:06:36.722Z,214.43
2018-02-07T17:09:07.547Z,208.10
2018-02-07T17:11:39.079Z,181.46
2018-02-07T17:14:09.654Z,179.27
2018-02-07T17:16:40.535Z,196.55
2018-02-07T17:19:12.045Z,189.04
2018-02-07T17:21:42.803Z,181.18
2018-02-07T17:24:13.736Z,187.10
2018-02-07T17:26:43.577Z,184.00
2018-02-07T17:29:14.057Z,172.13
2018-02-07T17:31:45.025Z,165.43
2018-02-07T17:34:16.261Z,175.48
2018-02-07T17:36:47.009Z,173.07
2018-02-07T17:39:18.307Z,169.34
2018-02-07T17:41:49.091Z,169.35
2018-02-07T17:44:18.899Z,165.40
2018-02-07T17:46:50.427Z,146.93
2018-02-07T17:49:21.979Z,164.40
2018-02-07T17:51:52.927Z,213.02
2018-02-07T17:54:23.406Z,200.57
2018-02-07T17:56:54.145Z,192.43
2018-02-07T17:59:25.023Z,186.57
2018-02-07T18:01:56.383Z,190.62
2018-02-07T18:04:26.991Z,186.95
2018-02-07T18:06:57.457Z,162.20
2018-02-07T18:09:28.084Z,144.40
2018-02-07T18:11:59.109Z,126.15
2018-02-07T18:14:29.955Z,119.22
2018-02-07T18:17:01.436Z,131.88
2018-02-07T18:19:32.915Z,125.76
2018-02-07T18:22:03.802Z,126.43
2018-02-07T18:24:35.100Z,126.06
2018-02-07T18:27:05.501Z,131.48
2018-02-07T18:29:36.013Z,133.12
2018-02-07T18:32:06.942Z,144.32
2018-02-07T18:34:37.294Z,148.68
2018-02-07T18:37:07.112Z,134.30
2018-02-07T18:39:36.176Z,128.27
2018-02-07T18:42:07.031Z,162.73
2018-02-07T18:44:37.342Z,169.65
2018-02-07T18:47:08.134Z,157.88
2018-02-07T18:49:38.935Z,146.45
2018-02-07T18:52:10.299Z,136.04
2018-02-07T18:54:41.035Z,129.25
2018-02-07T18:57:12.327Z,131.54
2018-02-07T18:59:43.019Z,137.98
2018-02-07T19:02:14.328Z,152.14
2018-02-07T19:04:45.014Z,159.12
2018-02-07T19:07:16.276Z,160.20
2018-02-07T19:09:47.062Z,159.12
2018-02-07T19:12:18.286Z,156.65
2018-02-07T19:14:50.497Z,142.37
2018-02-07T19:17:21.474Z,123.97
2018-02-07T19:19:52.430Z,118.35
2018-02-07T19:22:22.820Z,124.25
2018-02-07T19:24:53.736Z,120.62
2018-02-07T19:27:24.256Z,123.42
2018-02-07T19:29:55.092Z,127.45
2018-02-07T19:32:25.703Z,140.25
2018-02-07T19:34:56.650Z,135.85
2018-02-07T19:37:27.501Z,139.10
2018-02-07T19:39:58.552Z,144.98
2018-02-07T19:42:29.437Z,161.02
2018-02-07T19:45:00.734Z,159.72
2018-02-07T19:47:31.638Z,159.35
2018-02-07T19:50:02.667Z,174.18
2018-02-07T19:52:33.239Z,255.92
2018-02-07T19:55:04.595Z,252.13
2018-02-07T19:57:35.104Z,262.56
2018-02-07T20:00:05.127Z,261.20
2018-02-07T20:02:35.800Z,250.85
2018-02-07T20:05:06.884Z,213.77
2018-02-07T20:07:37.361Z,172.26
2018-02-07T20:10:07.792Z,172.20
2018-02-07T20:12:38.688Z,155.80
2018-02-07T20:15:09.596Z,177.90
2018-02-07T20:17:40.451Z,182.52
2018-02-07T20:20:11.555Z,203.07
2018-02-07T20:22:42.576Z,186.48
2018-02-07T20:25:13.485Z,175.25
2018-02-07T20:27:43.823Z,190.73
2018-02-07T20:30:14.915Z,200.15
2018-02-07T20:32:45.277Z,205.02
2018-02-07T20:35:15.874Z,179.15
2018-02-07T20:37:46.642Z,174.12
2018-02-07T20:40:17.291Z,173.48
2018-02-07T20:42:47.814Z,211.12
2018-02-07T20:45:18.851Z,271.70
2018-02-07T20:47:49.333Z,251.86
2018-02-07T20:50:19.876Z,210.73
2018-02-07T20:52:50.695Z,211.30
2018-02-07T20:55:21.642Z,233.63
2018-02-07T20:57:52.579Z,264.60
2018-02-07T21:00:23.480Z,248.25
2018-02-07T21:02:54.549Z,243.55
2018-02-07T21:05:25.295Z,248.12
2018-02-07T21:07:55.855Z,342.95
2018-02-07T21:10:26.886Z,401.30
2018-02-07T21:12:57.830Z,354.35
2018-02-07T21:15:28.782Z,291.92
2018-02-07T21:18:04.704Z,285.08
2018-02-07T21:20:33.844Z,245.15
2018-02-07T21:23:03.048Z,218.05
2018-02-07T21:25:33.396Z,201.62
2018-02-07T21:28:03.846Z,201.10
2018-02-07T21:30:34.713Z,197.27
2018-02-07T21:33:05.663Z,187.75
2018-02-07T21:35:36.606Z,192.30
2018-02-07T21:38:07.594Z,194.55
2018-02-07T21:40:38.107Z,190.30
2018-02-07T21:43:08.790Z,174.73
2018-02-07T21:45:40.186Z,203.98
2018-02-07T21:48:10.928Z,200.70
2018-02-07T21:54:10.498Z,206.63
2018-02-07T21:56:54.056Z,227.53
2018-02-07T22:02:38.725Z,262.70
2018-02-07T22:20:51.486Z,229.54
2018-02-07T22:23:21.152Z,232.77
2018-02-07T22:25:51.804Z,258.92
2018-02-07T22:28:22.677Z,273.95
2018-02-07T22:30:53.684Z,260.88
2018-02-07T22:33:24.579Z,295.60
2018-02-07T22:35:55.544Z,277.70
2018-02-07T22:38:26.424Z,291.90
2018-02-07T22:40:57.815Z,300.88
2018-02-07T22:43:28.762Z,329.50
2018-02-07T22:45:59.699Z,330.45
2018-02-07T22:48:30.550Z,325.92
2018-02-07T22:51:01.488Z,340.23
2018-02-07T22:53:31.762Z,352.78
2018-02-07T22:56:04.262Z,407.00
2018-02-07T22:58:34.823Z,445.80
2018-02-07T23:01:05.514Z,472.55
2018-02-07T23:03:36.275Z,431.50
2018-02-07T23:06:07.046Z,409.73
2018-02-07T23:08:37.859Z,403.73
2018-02-07T23:11:08.504Z,329.04
2018-02-07T23:13:39.472Z,296.10
2018-02-07T23:16:10.142Z,286.54
2018-02-07T23:18:40.787Z,246.32
2018-02-07T23:21:15.034Z,238.77
2018-02-07T23:23:44.103Z,229.93
2018-02-07T23:26:14.723Z,241.88
2018-02-07T23:28:45.087Z,289.67
2018-02-07T23:31:15.796Z,266.92
2018-02-07T23:33:46.041Z,231.97
2018-02-07T23:36:16.970Z,203.23
2018-02-07T23:38:47.896Z,201.93
2018-02-07T23:41:18.798Z,231.43
2018-02-07T23:43:49.488Z,248.80
2018-02-07T23:46:21.108Z,187.92
2018-02-07T23:48:51.914Z,172.18
2018-02-07T23:51:22.507Z,154.38
2018-02-07T23:53:53.772Z,155.60
2018-02-07T23:56:24.164Z,145.43
2018-02-07T23:58:55.686Z,140.52
